Akim Oda

DGKA · Eastern, 加纳

METAR DGKA · Akim Oda

22 七月 06:00 LT
19m
使用的METAR站距离机场97 km。
罗盘
风向 的 风向 180°
风: 3 kt, 1 beaufort

添加一条跑道以查看侧风和逆风信息。

添置 跑道
0 ft 1.000 2.000 3.000 4.000 5.000
没有观察到明显的云
METAR DGAA 220600Z 18003KT 5000 BR NSC 25/24 Q1015 NOSIG

METAR Akim Oda - DGKA

Akim Oda是,加纳中的未知。 该机场位于纬度5,93333和经度-0,98333。 本场的ICAO机场代码为DGKA。 机场在Accra FIR中。

该航空气象观测是针对科托卡国际机场在2024年7月22日 06:00, 当地时间进行的。

机场观察

风向为180°,速度为3 kt。

可见度为5 km。

有没有观察到明显的云。 没有观察到天花板。

当前天气为薄雾。 温度和风寒是25 °C。 露点为24 °C,相对湿度为94%。 海平面上的气压为1015 hPa (QNH)。

白天

今天,太阳从05:58升起,在18:22降落。 这适用于Akim Oda,世界夏令时可能有所不同。 当地时间与世界标准时间之间的时差为+0 小时。 夏令时目前正在进行中。

公司介绍

我们没有关于这个机场的公司信息。

体会

到Vliegles.nl去找飞行课程,跳伞和其他飞行体验。 浏览页面,了解Akim Oda附近所有可用的活动。 你也可以使用搜索功能来寻找你所在地附近的特定飞行课程、跳伞或其他飞行体验。

乌云

- NSC 没有观察到明显的云

温度 & 天气

天气 薄雾
温度 25 °C
露点 24 °C
相对湿度 94%
Kp-index 0 (0-9)

白天

日出
05:55
中午
12:07
日落
18:19 (12:00)

小工具

你想在你的网站上有一个关于Akim Oda的当前航空天气(METAR)的小部件吗?

显示HTML代码
报告变更